sensor_id;sensor_type;location;lat;lon;timestamp;temperature;humidity
75517;DHT22;64097;52.548;13.406;2022-12-18T06:04:49;2.10;57.20
75517;DHT22;64097;52.548;13.406;2022-12-18T06:07:15;2.10;57.30
75517;DHT22;64097;52.548;13.406;2022-12-18T06:09:40;2.10;57.40
75517;DHT22;64097;52.548;13.406;2022-12-18T06:12:06;2.10;57.40
75517;DHT22;64097;52.548;13.406;2022-12-18T06:14:32;2.20;57.40
75517;DHT22;64097;52.548;13.406;2022-12-18T06:16:57;2.20;57.40
75517;DHT22;64097;52.548;13.406;2022-12-18T06:19:23;2.20;57.40
75517;DHT22;64097;52.548;13.406;2022-12-18T06:21:49;2.20;57.40
75517;DHT22;64097;52.548;13.406;2022-12-18T06:24:15;2.30;57.40
75517;DHT22;64097;52.548;13.406;2022-12-18T06:26:41;2.30;57.30
75517;DHT22;64097;52.548;13.406;2022-12-18T06:29:07;2.30;57.30
75517;DHT22;64097;52.548;13.406;2022-12-18T06:31:33;2.30;57.40
75517;DHT22;64097;52.548;13.406;2022-12-18T06:33:58;2.30;57.30
75517;DHT22;64097;52.548;13.406;2022-12-18T06:36:24;2.30;57.30
75517;DHT22;64097;52.548;13.406;2022-12-18T06:38:50;2.30;57.30
75517;DHT22;64097;52.548;13.406;2022-12-18T06:41:18;2.30;57.30
75517;DHT22;64097;52.548;13.406;2022-12-18T06:43:44;2.30;57.30
75517;DHT22;64097;52.548;13.406;2022-12-18T06:46:10;2.30;57.30
75517;DHT22;64097;52.548;13.406;2022-12-18T06:48:35;2.30;57.20
75517;DHT22;64097;52.548;13.406;2022-12-18T06:51:02;2.30;57.20
75517;DHT22;64097;52.548;13.406;2022-12-18T06:53:28;2.30;57.30
75517;DHT22;64097;52.548;13.406;2022-12-18T06:56:01;2.30;57.20
75517;DHT22;64097;52.548;13.406;2022-12-18T06:58:27;2.30;57.20
75517;DHT22;64097;52.548;13.406;2022-12-18T07:00:53;2.30;57.20
75517;DHT22;64097;52.548;13.406;2022-12-18T07:03:18;2.20;57.30
75517;DHT22;64097;52.548;13.406;2022-12-18T07:05:44;2.20;57.40
75517;DHT22;64097;52.548;13.406;2022-12-18T07:08:10;2.30;57.50
75517;DHT22;64097;52.548;13.406;2022-12-18T07:10:42;2.30;57.50
75517;DHT22;64097;52.548;13.406;2022-12-18T07:13:08;2.30;57.50
75517;DHT22;64097;52.548;13.406;2022-12-18T07:15:34;2.20;57.40
75517;DHT22;64097;52.548;13.406;2022-12-18T07:17:59;2.20;57.50
75517;DHT22;64097;52.548;13.406;2022-12-18T07:20:25;2.20;58.20
75517;DHT22;64097;52.548;13.406;2022-12-18T07:22:51;2.30;57.60
75517;DHT22;64097;52.548;13.406;2022-12-18T07:25:16;2.30;57.60
75517;DHT22;64097;52.548;13.406;2022-12-18T07:27:42;2.30;57.60
75517;DHT22;64097;52.548;13.406;2022-12-18T07:30:08;2.30;57.50
75517;DHT22;64097;52.548;13.406;2022-12-18T07:32:34;2.30;57.50
75517;DHT22;64097;52.548;13.406;2022-12-18T07:35:00;2.20;57.40
75517;DHT22;64097;52.548;13.406;2022-12-18T07:37:25;2.30;57.50
75517;DHT22;64097;52.548;13.406;2022-12-18T07:39:51;2.30;57.50
75517;DHT22;64097;52.548;13.406;2022-12-18T07:42:17;2.20;57.50
75517;DHT22;64097;52.548;13.406;2022-12-18T07:44:59;2.20;57.50
75517;DHT22;64097;52.548;13.406;2022-12-18T07:47:25;2.20;57.60
75517;DHT22;64097;52.548;13.406;2022-12-18T07:49:51;2.20;57.70
75517;DHT22;64097;52.548;13.406;2022-12-18T07:52:16;2.10;57.70
75517;DHT22;64097;52.548;13.406;2022-12-18T07:54:42;2.20;57.90
75517;DHT22;64097;52.548;13.406;2022-12-18T07:57:09;2.20;57.80
75517;DHT22;64097;52.548;13.406;2022-12-18T07:59:35;2.20;57.80
75517;DHT22;64097;52.548;13.406;2022-12-18T08:02:01;2.20;57.70
75517;DHT22;64097;52.548;13.406;2022-12-18T08:04:27;2.20;57.70
75517;DHT22;64097;52.548;13.406;2022-12-18T08:06:52;2.10;57.70
75517;DHT22;64097;52.548;13.406;2022-12-18T08:09:18;2.10;57.80
75517;DHT22;64097;52.548;13.406;2022-12-18T08:11:44;2.10;57.70
75517;DHT22;64097;52.548;13.406;2022-12-18T08:14:09;2.10;57.70
75517;DHT22;64097;52.548;13.406;2022-12-18T08:16:35;2.20;57.80
75517;DHT22;64097;52.548;13.406;2022-12-18T08:19:02;2.20;57.70
75517;DHT22;64097;52.548;13.406;2022-12-18T08:21:30;2.20;57.60
75517;DHT22;64097;52.548;13.406;2022-12-18T08:23:58;2.20;57.60
75517;DHT22;64097;52.548;13.406;2022-12-18T08:26:26;2.20;57.50
75517;DHT22;64097;52.548;13.406;2022-12-18T08:28:57;2.20;57.50
75517;DHT22;64097;52.548;13.406;2022-12-18T08:31:24;2.20;57.50
75517;DHT22;64097;52.548;13.406;2022-12-18T08:33:51;2.30;57.50
75517;DHT22;64097;52.548;13.406;2022-12-18T08:36:17;2.30;57.50
75517;DHT22;64097;52.548;13.406;2022-12-18T08:38:44;2.30;57.50
75517;DHT22;64097;52.548;13.406;2022-12-18T08:41:12;2.30;57.50
75517;DHT22;64097;52.548;13.406;2022-12-18T08:43:38;2.30;57.30
75517;DHT22;64097;52.548;13.406;2022-12-18T08:46:25;2.30;57.30
75517;DHT22;64097;52.548;13.406;2022-12-18T08:48:52;2.30;57.30
75517;DHT22;64097;52.548;13.406;2022-12-18T08:51:18;2.30;57.40
75517;DHT22;64097;52.548;13.406;2022-12-18T08:53:43;2.30;58.10
75517;DHT22;64097;52.548;13.406;2022-12-18T08:56:10;2.30;57.40
75517;DHT22;64097;52.548;13.406;2022-12-18T08:58:36;2.30;57.40
75517;DHT22;64097;52.548;13.406;2022-12-18T09:01:03;2.30;57.30
75517;DHT22;64097;52.548;13.406;2022-12-18T09:03:29;2.30;57.30
75517;DHT22;64097;52.548;13.406;2022-12-18T09:05:54;2.40;57.30
75517;DHT22;64097;52.548;13.406;2022-12-18T09:08:20;2.40;57.20
75517;DHT22;64097;52.548;13.406;2022-12-18T09:10:48;2.40;57.10
75517;DHT22;64097;52.548;13.406;2022-12-18T09:13:14;2.40;56.90
75517;DHT22;64097;52.548;13.406;2022-12-18T09:15:48;2.40;56.80
75517;DHT22;64097;52.548;13.406;2022-12-18T09:18:16;2.40;56.80
75517;DHT22;64097;52.548;13.406;2022-12-18T09:20:43;2.40;56.90
75517;DHT22;64097;52.548;13.406;2022-12-18T09:23:09;2.40;56.90
75517;DHT22;64097;52.548;13.406;2022-12-18T09:25:36;2.40;57.00
75517;DHT22;64097;52.548;13.406;2022-12-18T09:28:04;2.40;57.10
75517;DHT22;64097;52.548;13.406;2022-12-18T09:30:30;2.40;57.20
75517;DHT22;64097;52.548;13.406;2022-12-18T09:32:58;2.40;57.30
75517;DHT22;64097;52.548;13.406;2022-12-18T09:35:24;2.40;57.40
75517;DHT22;64097;52.548;13.406;2022-12-18T09:37:50;2.40;57.40
75517;DHT22;64097;52.548;13.406;2022-12-18T09:40:22;2.40;57.30
75517;DHT22;64097;52.548;13.406;2022-12-18T09:42:53;2.50;57.40
75517;DHT22;64097;52.548;13.406;2022-12-18T09:45:21;2.50;57.40
75517;DHT22;64097;52.548;13.406;2022-12-18T09:47:49;2.50;57.40
75517;DHT22;64097;52.548;13.406;2022-12-18T09:52:57;2.60;57.40
75517;DHT22;64097;52.548;13.406;2022-12-18T09:55:33;2.60;57.30
75517;DHT22;64097;52.548;13.406;2022-12-18T09:58:06;2.60;57.30
75517;DHT22;64097;52.548;13.406;2022-12-18T10:00:35;2.70;57.30
75517;DHT22;64097;52.548;13.406;2022-12-18T10:03:11;2.70;57.30
75517;DHT22;64097;52.548;13.406;2022-12-18T10:17:20;2.80;57.70
75517;DHT22;64097;52.548;13.406;2022-12-18T10:24:45;2.90;58.10
75517;DHT22;64097;52.548;13.406;2022-12-18T10:27:16;2.80;58.20
75517;DHT22;64097;52.548;13.406;2022-12-18T10:29:44;2.80;58.30
75517;DHT22;64097;52.548;13.406;2022-12-18T10:32:19;2.90;58.50
75517;DHT22;64097;52.548;13.406;2022-12-18T10:34:47;2.90;58.50
75517;DHT22;64097;52.548;13.406;2022-12-18T10:37:21;2.90;58.50
75517;DHT22;64097;52.548;13.406;2022-12-18T10:40:15;2.90;58.50
75517;DHT22;64097;52.548;13.406;2022-12-18T10:42:41;2.90;58.40
75517;DHT22;64097;52.548;13.406;2022-12-18T10:45:14;3.00;58.40
75517;DHT22;64097;52.548;13.406;2022-12-18T10:47:45;3.00;58.40
75517;DHT22;64097;52.548;13.406;2022-12-18T10:50:37;3.10;58.40
75517;DHT22;64097;52.548;13.406;2022-12-18T10:53:04;3.10;58.40
75517;DHT22;64097;52.548;13.406;2022-12-18T10:55:33;3.20;58.30
75517;DHT22;64097;52.548;13.406;2022-12-18T10:58:34;3.20;58.30
75517;DHT22;64097;52.548;13.406;2022-12-18T11:03:46;3.30;58.40
75517;DHT22;64097;52.548;13.406;2022-12-18T11:06:13;3.30;58.40
75517;DHT22;64097;52.548;13.406;2022-12-18T11:08:41;3.30;58.40
75517;DHT22;64097;52.548;13.406;2022-12-18T11:11:21;3.30;58.40
75517;DHT22;64097;52.548;13.406;2022-12-18T11:13:57;3.30;58.40
75517;DHT22;64097;52.548;13.406;2022-12-18T11:16:24;3.30;58.40
75517;DHT22;64097;52.548;13.406;2022-12-18T11:18:50;3.40;58.50
75517;DHT22;64097;52.548;13.406;2022-12-18T11:21:16;3.40;58.50
75517;DHT22;64097;52.548;13.406;2022-12-18T11:23:59;3.40;58.50
75517;DHT22;64097;52.548;13.406;2022-12-18T11:26:34;3.40;58.50
75517;DHT22;64097;52.548;13.406;2022-12-18T11:29:10;3.40;58.50
75517;DHT22;64097;52.548;13.406;2022-12-18T11:31:41;3.40;58.50
75517;DHT22;64097;52.548;13.406;2022-12-18T11:34:52;3.40;58.40
75517;DHT22;64097;52.548;13.406;2022-12-18T11:36:59;3.40;58.50
75517;DHT22;64097;52.548;13.406;2022-12-18T11:39:36;3.40;58.50
75517;DHT22;64097;52.548;13.406;2022-12-18T11:42:24;3.40;58.40
75517;DHT22;64097;52.548;13.406;2022-12-18T11:44:57;3.30;58.30
75517;DHT22;64097;52.548;13.406;2022-12-18T11:47:44;3.30;58.40
75517;DHT22;64097;52.548;13.406;2022-12-18T11:50:21;3.30;58.40
75517;DHT22;64097;52.548;13.406;2022-12-18T11:52:49;3.30;58.50
75517;DHT22;64097;52.548;13.406;2022-12-18T12:00:25;3.40;58.70
75517;DHT22;64097;52.548;13.406;2022-12-18T12:05:59;3.50;58.80
75517;DHT22;64097;52.548;13.406;2022-12-18T12:08:48;3.50;58.80
75517;DHT22;64097;52.548;13.406;2022-12-18T12:11:41;3.50;58.80
75517;DHT22;64097;52.548;13.406;2022-12-18T12:16:59;3.60;58.70
75517;DHT22;64097;52.548;13.406;2022-12-18T12:19:48;3.60;58.70
75517;DHT22;64097;52.548;13.406;2022-12-18T12:30:41;3.70;58.50
75517;DHT22;64097;52.548;13.406;2022-12-18T12:36:27;3.70;58.30
75517;DHT22;64097;52.548;13.406;2022-12-18T12:38:58;3.60;58.10
75517;DHT22;64097;52.548;13.406;2022-12-18T12:41:30;3.60;58.10
75517;DHT22;64097;52.548;13.406;2022-12-18T12:44:49;3.60;58.20
75517;DHT22;64097;52.548;13.406;2022-12-18T12:47:30;3.60;58.30
75517;DHT22;64097;52.548;13.406;2022-12-18T12:50:01;3.60;59.00
75517;DHT22;64097;52.548;13.406;2022-12-18T12:52:35;3.60;58.30
75517;DHT22;64097;52.548;13.406;2022-12-18T12:55:05;3.60;58.20
75517;DHT22;64097;52.548;13.406;2022-12-18T12:57:40;3.60;58.20
75517;DHT22;64097;52.548;13.406;2022-12-18T13:00:11;3.70;58.20
75517;DHT22;64097;52.548;13.406;2022-12-18T13:03:06;3.60;58.20
75517;DHT22;64097;52.548;13.406;2022-12-18T13:05:48;3.60;58.20
75517;DHT22;64097;52.548;13.406;2022-12-18T13:08:30;3.60;58.10
75517;DHT22;64097;52.548;13.406;2022-12-18T13:10:58;3.60;58.20
75517;DHT22;64097;52.548;13.406;2022-12-18T13:13:51;3.60;58.30
75517;DHT22;64097;52.548;13.406;2022-12-18T13:16:24;3.60;58.30
75517;DHT22;64097;52.548;13.406;2022-12-18T13:18:51;3.60;58.40
75517;DHT22;64097;52.548;13.406;2022-12-18T13:21:28;3.60;58.50
75517;DHT22;64097;52.548;13.406;2022-12-18T13:23:55;3.60;58.50
75517;DHT22;64097;52.548;13.406;2022-12-18T13:26:28;3.60;58.50
75517;DHT22;64097;52.548;13.406;2022-12-18T13:28:56;3.60;58.50
75517;DHT22;64097;52.548;13.406;2022-12-18T13:34:23;3.60;58.40
75517;DHT22;64097;52.548;13.406;2022-12-18T13:36:50;3.60;58.30
75517;DHT22;64097;52.548;13.406;2022-12-18T13:42:37;3.60;58.40
75517;DHT22;64097;52.548;13.406;2022-12-18T13:44:38;3.60;58.40
75517;DHT22;64097;52.548;13.406;2022-12-18T13:47:44;3.60;58.50
75517;DHT22;64097;52.548;13.406;2022-12-18T13:50:21;3.50;58.30
75517;DHT22;64097;52.548;13.406;2022-12-18T13:52:48;3.50;58.40
75517;DHT22;64097;52.548;13.406;2022-12-18T13:55:19;3.50;58.50
75517;DHT22;64097;52.548;13.406;2022-12-18T13:57:45;3.50;58.60
